Terminal Aerodrome Forecast
Issued by NWS Charleston, WV

Current Version | Previous Version | Text Only | Print | Product List | Glossary Off
Versions: 1 2 3 4 5 6 7 8 9 10 11 12 13 14 15 16 17 18 19 20 21 22 23 24 25 26 27 28

000
FTUS41 KRLX 251515 AAA
TAFHTS
TAF AMD
KHTS 251515Z 2515/2612 25009G19KT P6SM BKN035
     FM251600 26013G26KT P6SM SCT025 OVC035
     FM251800 27014G24KT P6SM BKN040
     FM252200 27011G18KT P6SM BKN040
     FM260300 28008KT P6SM BKN040=

USA.gov is the U.S. government's official web portal to all federal, state and local government web resources and services.